Time;durP1;ratioP1;P1;durP2;ratioP2;P2;SDS_P1;SDS_P2;PMS_P1;PMS_P2;Temp;Humidity;BMP_temperature;BMP_pressure;BME280_temperature;BME280_humidity;BME280_pressure;Samples;Min_cycle;Max_cycle;Signal;HPM_P1;HPM_P2
2021/12/12 00:01:31;;;;;;;81.13;40.03;;;;;;;;;;5058049;28;20125;-30
2021/12/12 00:04:12;;;;;;;73.15;38.40;;;;;;;;;;5044983;28;20124;-30
2021/12/12 00:06:41;;;;;;;76.22;38.55;;;;;;;;;;5048303;28;20068;-30
2021/12/12 00:09:16;;;;;;;74.93;36.00;;;;;;;;;;5058730;28;20410;-29
2021/12/12 00:11:46;;;;;;;77.13;39.10;;;;;;;;;;5047880;28;20390;-30
2021/12/12 00:14:20;;;;;;;68.85;38.42;;;;;;;;;;5049501;28;20071;-31
2021/12/12 00:16:46;;;;;;;71.95;36.72;;;;;;;;;;5040365;28;20047;-29
2021/12/12 00:19:13;;;;;;;77.78;39.03;;;;;;;;;;5057236;28;20029;-29
2021/12/12 00:21:41;;;;;;;75.28;38.47;;;;;;;;;;5066567;28;20048;-30
2021/12/12 00:24:11;;;;;;;68.63;36.53;;;;;;;;;;5061866;28;20052;-30
2021/12/12 00:26:38;;;;;;;66.68;36.78;;;;;;;;;;5065861;28;20039;-30
2021/12/12 00:29:08;;;;;;;65.63;37.95;;;;;;;;;;5063509;28;20040;-28
2021/12/12 00:31:38;;;;;;;69.47;36.88;;;;;;;;;;5051348;28;20033;-30
2021/12/12 00:34:04;;;;;;;69.65;37.72;;;;;;;;;;5051864;28;20032;-30
2021/12/12 00:36:34;;;;;;;62.63;35.13;;;;;;;;;;5066033;28;20090;-30
2021/12/12 00:39:10;;;;;;;69.60;36.40;;;;;;;;;;5060480;28;20091;-30
2021/12/12 00:41:44;;;;;;;66.25;36.67;;;;;;;;;;5060399;28;20050;-29
2021/12/12 00:44:13;;;;;;;65.82;36.20;;;;;;;;;;5050548;28;20036;-30
2021/12/12 00:46:39;;;;;;;69.43;36.95;;;;;;;;;;5049739;28;20035;-30
2021/12/12 00:49:10;;;;;;;69.00;37.28;;;;;;;;;;5056097;28;20049;-30
2021/12/12 00:51:38;;;;;;;67.95;35.78;;;;;;;;;;5055877;28;20039;-29
2021/12/12 00:54:08;;;;;;;62.20;34.53;;;;;;;;;;5059121;28;20139;-29
2021/12/12 00:56:34;;;;;;;65.45;35.85;;;;;;;;;;5063788;28;20040;-31
2021/12/12 00:59:04;;;;;;;65.07;36.17;;;;;;;;;;5058533;28;20076;-30
2021/12/12 01:01:35;;;;;;;68.05;36.63;;;;;;;;;;5064211;28;20033;-30
2021/12/12 01:04:13;;;;;;;62.75;36.88;;;;;;;;;;5057208;28;20048;-30
2021/12/12 01:06:53;;;;;;;67.90;34.72;;;;;;;;;;5048938;28;20079;-30
2021/12/12 01:09:23;;;;;;;66.72;34.67;;;;;;;;;;5064184;28;20056;-30
2021/12/12 01:12:00;;;;;;;66.53;33.83;;;;;;;;;;5048817;28;20543;-30
2021/12/12 01:14:34;;;;;;;53.95;33.58;;;;;;;;;;5048095;28;20037;-30
2021/12/12 01:17:09;;;;;;;60.92;35.05;;;;;;;;;;5060065;28;20044;-30
2021/12/12 01:19:44;;;;;;;58.70;33.83;;;;;;;;;;5068144;28;20048;-30
2021/12/12 01:22:17;;;;;;;60.03;34.25;;;;;;;;;;5060231;28;20048;-30
2021/12/12 01:24:50;;;;;;;55.80;33.08;;;;;;;;;;5067641;28;20048;-30
2021/12/12 01:27:22;;;;;;;57.17;33.87;;;;;;;;;;5050506;28;20040;-30
2021/12/12 01:29:49;;;;;;;59.85;33.17;;;;;;;;;;5055482;28;20037;-30
2021/12/12 01:32:23;;;;;;;62.03;33.10;;;;;;;;;;5058072;28;20037;-29
2021/12/12 01:34:51;;;;;;;54.35;30.80;;;;;;;;;;5048170;28;20052;-29
2021/12/12 01:39:58;;;;;;;57.97;29.83;;;;;;;;;;5049910;28;20402;-29
2021/12/12 01:42:26;;;;;;;55.90;31.17;;;;;;;;;;5050291;28;20406;-30
2021/12/12 01:45:18;;;;;;;55.63;31.17;;;;;;;;;;5031770;28;20041;-29
2021/12/12 01:47:44;;;;;;;58.00;32.20;;;;;;;;;;5037212;28;20061;-30
2021/12/12 01:50:16;;;;;;;55.25;30.85;;;;;;;;;;5049900;28;20041;-30
2021/12/12 01:52:49;;;;;;;52.85;29.80;;;;;;;;;;5032631;28;20119;-29
2021/12/12 01:55:30;;;;;;;55.75;30.88;;;;;;;;;;5035658;28;20041;-30
2021/12/12 01:57:57;;;;;;;50.40;31.50;;;;;;;;;;5053942;28;20044;-31
2021/12/12 02:00:27;;;;;;;56.17;30.38;;;;;;;;;;5053702;28;20041;-30
2021/12/12 02:02:57;;;;;;;54.53;29.58;;;;;;;;;;5053211;28;20056;-29
2021/12/12 02:05:27;;;;;;;50.05;29.20;;;;;;;;;;5053724;28;20045;-32
2021/12/12 02:07:55;;;;;;;57.63;31.10;;;;;;;;;;5054035;28;20457;-30
2021/12/12 02:10:24;;;;;;;54.42;30.98;;;;;;;;;;5053745;28;20402;-30
2021/12/12 02:13:00;;;;;;;52.35;29.65;;;;;;;;;;5053266;28;20029;-33
2021/12/12 02:15:31;;;;;;;51.58;30.27;;;;;;;;;;5059449;28;20045;-31
2021/12/12 02:17:57;;;;;;;54.10;27.92;;;;;;;;;;5066772;28;20053;-30
2021/12/12 02:20:42;;;;;;;51.50;28.90;;;;;;;;;;5065704;28;20509;-30
2021/12/12 02:23:22;;;;;;;49.42;28.02;;;;;;;;;;5064766;28;20041;-30
2021/12/12 02:36:57;;;;;;;57.08;28.67;;;;;;;;;;5069241;28;20043;-31
2021/12/12 02:39:24;;;;;;;47.20;26.83;;;;;;;;;;5064900;28;20032;-30
2021/12/12 02:41:52;;;;;;;47.20;26.80;;;;;;;;;;5072431;28;20115;-30
2021/12/12 02:44:22;;;;;;;46.88;26.20;;;;;;;;;;5043236;28;20553;-30
2021/12/12 02:46:52;;;;;;;42.55;25.33;;;;;;;;;;5067659;28;20037;-31
2021/12/12 02:52:13;;;;;;;42.30;23.88;;;;;;;;;;5037326;28;20036;-29
2021/12/12 02:54:39;;;;;;;41.50;24.58;;;;;;;;;;5055681;22;20038;-82
2021/12/12 02:57:06;;;;;;;40.63;23.77;;;;;;;;;;4966151;28;20516;-84
2021/12/12 02:59:35;;;;;;;45.50;25.95;;;;;;;;;;4986418;28;20054;-82
2021/12/12 03:02:05;;;;;;;47.65;24.70;;;;;;;;;;5000025;28;20026;-82
2021/12/12 03:04:32;;;;;;;43.30;23.88;;;;;;;;;;5000981;28;20081;-83
2021/12/12 03:06:58;;;;;;;41.63;23.63;;;;;;;;;;4971968;28;20409;-82
2021/12/12 03:09:33;;;;;;;41.25;22.45;;;;;;;;;;4974700;28;20034;-82
2021/12/12 03:12:02;;;;;;;37.88;24.48;;;;;;;;;;4959819;28;20500;-82
2021/12/12 03:14:33;;;;;;;43.17;23.30;;;;;;;;;;4982647;28;20095;-83
2021/12/12 03:17:07;;;;;;;45.33;23.95;;;;;;;;;;4951812;28;20442;-82
2021/12/12 03:19:33;;;;;;;44.53;24.08;;;;;;;;;;4962767;28;20046;-82
2021/12/12 03:21:59;;;;;;;43.83;23.98;;;;;;;;;;4960552;28;20045;-83
2021/12/12 03:24:27;;;;;;;41.53;23.65;;;;;;;;;;4961929;28;20031;-82
2021/12/12 03:26:55;;;;;;;43.22;23.48;;;;;;;;;;4967976;28;20119;-82
2021/12/12 03:29:22;;;;;;;43.35;23.10;;;;;;;;;;4968756;28;20110;-82
2021/12/12 03:31:51;;;;;;;42.97;21.98;;;;;;;;;;4944380;28;20039;-82
2021/12/12 03:34:21;;;;;;;39.72;22.38;;;;;;;;;;4976827;28;20042;-84
2021/12/12 03:36:47;;;;;;;38.03;21.85;;;;;;;;;;4960172;28;20054;-83
2021/12/12 03:39:20;;;;;;;37.20;22.02;;;;;;;;;;4976034;28;20058;-83
2021/12/12 03:41:47;;;;;;;39.53;21.50;;;;;;;;;;4964487;28;20043;-84
2021/12/12 03:44:15;;;;;;;42.35;23.73;;;;;;;;;;4960392;28;20047;-83
2021/12/12 03:46:41;;;;;;;44.92;24.90;;;;;;;;;;4946017;28;20046;-84
2021/12/12 03:49:08;;;;;;;43.90;23.13;;;;;;;;;;4948696;28;20051;-84
2021/12/12 03:51:34;;;;;;;44.72;23.20;;;;;;;;;;4944484;28;20556;-84
2021/12/12 03:54:01;;;;;;;39.92;23.20;;;;;;;;;;4954692;28;20043;-84
2021/12/12 03:56:27;;;;;;;36.60;21.95;;;;;;;;;;4969494;28;20078;-83
2021/12/12 03:58:53;;;;;;;35.63;22.55;;;;;;;;;;4944294;28;20055;-83
2021/12/12 04:01:23;;;;;;;39.78;20.65;;;;;;;;;;4986367;28;20061;-84
2021/12/12 04:03:51;;;;;;;31.15;19.00;;;;;;;;;;4986772;28;20130;-83
2021/12/12 04:06:21;;;;;;;42.22;21.75;;;;;;;;;;4959803;28;20439;-84
2021/12/12 04:08:49;;;;;;;42.92;23.10;;;;;;;;;;4960702;28;20324;-84
2021/12/12 04:11:17;;;;;;;34.58;21.30;;;;;;;;;;4960165;28;20034;-83
2021/12/12 04:13:45;;;;;;;38.72;21.55;;;;;;;;;;4963827;28;20043;-84
2021/12/12 04:16:11;;;;;;;37.70;20.27;;;;;;;;;;4948924;28;20596;-84
2021/12/12 04:18:37;;;;;;;31.50;21.33;;;;;;;;;;4958635;28;20038;-84
2021/12/12 04:21:04;;;;;;;39.95;21.67;;;;;;;;;;4953612;28;20038;-83
2021/12/12 04:23:30;;;;;;;36.75;20.65;;;;;;;;;;4973450;28;20038;-84
2021/12/12 04:26:10;;;;;;;37.95;20.85;;;;;;;;;;4960083;28;20521;-84
2021/12/12 04:28:36;;;;;;;36.58;21.55;;;;;;;;;;4960001;28;20039;-83
2021/12/12 04:31:02;;;;;;;34.80;20.52;;;;;;;;;;4952984;28;20038;-84
2021/12/12 04:33:28;;;;;;;32.90;20.75;;;;;;;;;;4967249;28;20090;-83
2021/12/12 04:35:54;;;;;;;33.20;19.90;;;;;;;;;;4959145;28;20042;-84
2021/12/12 04:38:20;;;;;;;29.33;16.60;;;;;;;;;;4967075;28;20043;-83
2021/12/12 04:40:46;;;;;;;30.98;18.90;;;;;;;;;;4960063;28;20042;-83
2021/12/12 04:43:12;;;;;;;29.55;19.90;;;;;;;;;;4967592;28;20046;-84
2021/12/12 04:45:42;;;;;;;31.90;15.70;;;;;;;;;;4943708;28;20403;-84
2021/12/12 04:50:54;;;;;;;35.25;19.63;;;;;;;;;;4967577;28;20050;-84
2021/12/12 04:53:27;;;;;;;27.83;18.00;;;;;;;;;;4961414;28;20378;-84
2021/12/12 04:55:56;;;;;;;31.80;19.50;;;;;;;;;;4961979;28;20050;-83
2021/12/12 04:58:27;;;;;;;30.40;18.38;;;;;;;;;;4972582;28;20064;-84
2021/12/12 05:01:02;;;;;;;33.85;18.42;;;;;;;;;;4948922;28;20572;-84
2021/12/12 05:03:37;;;;;;;25.88;17.42;;;;;;;;;;4970552;28;20046;-84
2021/12/12 05:06:12;;;;;;;32.70;19.70;;;;;;;;;;4976783;28;20042;-83
2021/12/12 05:08:38;;;;;;;27.13;18.95;;;;;;;;;;4977998;28;20047;-83
2021/12/12 05:11:11;;;;;;;31.88;18.58;;;;;;;;;;4959100;28;20050;-84
2021/12/12 05:13:47;;;;;;;30.58;18.33;;;;;;;;;;4965635;28;20035;-83
2021/12/12 05:16:16;;;;;;;26.73;17.60;;;;;;;;;;4986251;28;20405;-84
2021/12/12 05:18:50;;;;;;;25.33;17.08;;;;;;;;;;4950717;28;20453;-83
2021/12/12 05:21:18;;;;;;;26.27;17.40;;;;;;;;;;4974940;28;20048;-84
2021/12/12 05:23:49;;;;;;;29.40;17.40;;;;;;;;;;4958300;28;20506;-83
2021/12/12 05:26:17;;;;;;;25.25;17.05;;;;;;;;;;4973219;28;20047;-83
2021/12/12 05:28:48;;;;;;;24.67;15.70;;;;;;;;;;4979219;28;20386;-83
2021/12/12 05:31:14;;;;;;;29.02;18.13;;;;;;;;;;4975015;28;20449;-83
2021/12/12 05:33:41;;;;;;;23.70;15.93;;;;;;;;;;4970701;28;20059;-84
2021/12/12 05:36:11;;;;;;;25.00;15.32;;;;;;;;;;4955561;28;20039;-84
2021/12/12 05:38:39;;;;;;;24.08;15.50;;;;;;;;;;4990250;28;20108;-84
2021/12/12 05:41:05;;;;;;;21.60;14.35;;;;;;;;;;4960809;28;20038;-84
2021/12/12 05:43:31;;;;;;;22.67;15.25;;;;;;;;;;4952729;28;20041;-84
2021/12/12 05:45:58;;;;;;;22.67;14.55;;;;;;;;;;4954165;28;20129;-84
2021/12/12 05:48:24;;;;;;;18.13;14.57;;;;;;;;;;4976161;28;20039;-83
2021/12/12 05:50:51;;;;;;;19.52;14.02;;;;;;;;;;4963122;28;20116;-82
2021/12/12 05:53:17;;;;;;;19.73;13.77;;;;;;;;;;4956708;28;20038;-83
2021/12/12 05:55:44;;;;;;;19.05;13.20;;;;;;;;;;4966852;28;20130;-84
2021/12/12 05:58:11;;;;;;;17.23;12.73;;;;;;;;;;4993866;28;20050;-84
2021/12/12 06:00:48;;;;;;;22.70;13.50;;;;;;;;;;4994277;28;20139;-84
2021/12/12 06:03:20;;;;;;;17.33;12.32;;;;;;;;;;4970029;28;20043;-83
2021/12/12 06:05:46;;;;;;;16.60;12.23;;;;;;;;;;4965058;28;20046;-84
2021/12/12 06:08:13;;;;;;;17.65;12.15;;;;;;;;;;4959647;28;20039;-83
2021/12/12 06:10:40;;;;;;;14.85;11.57;;;;;;;;;;4952200;28;20038;-84
2021/12/12 06:13:09;;;;;;;16.40;13.00;;;;;;;;;;4966717;28;20049;-84
2021/12/12 06:15:38;;;;;;;18.88;12.65;;;;;;;;;;4991467;28;20070;-84
2021/12/12 06:18:05;;;;;;;16.70;12.68;;;;;;;;;;4970244;28;20059;-82
2021/12/12 06:20:31;;;;;;;16.00;12.43;;;;;;;;;;4975833;28;20022;-82
2021/12/12 06:22:58;;;;;;;15.40;10.82;;;;;;;;;;5002621;28;20552;-84
2021/12/12 06:25:25;;;;;;;15.80;13.02;;;;;;;;;;4972047;28;20133;-84
2021/12/12 06:27:51;;;;;;;19.08;12.52;;;;;;;;;;4978927;28;20035;-84
2021/12/12 06:30:18;;;;;;;17.40;12.40;;;;;;;;;;4974890;28;20038;-83
2021/12/12 06:32:45;;;;;;;16.88;12.52;;;;;;;;;;4970941;28;20038;-84
2021/12/12 06:35:12;;;;;;;16.52;12.10;;;;;;;;;;4952446;28;20417;-83
2021/12/12 06:37:38;;;;;;;18.23;13.48;;;;;;;;;;4964389;28;20050;-83
2021/12/12 06:40:06;;;;;;;16.98;13.15;;;;;;;;;;4968953;28;20127;-84
2021/12/12 06:42:33;;;;;;;19.38;12.90;;;;;;;;;;4945312;28;20101;-83
2021/12/12 06:44:59;;;;;;;17.90;12.55;;;;;;;;;;4979933;28;20397;-83
2021/12/12 06:47:25;;;;;;;28.98;18.95;;;;;;;;;;4959051;28;20053;-83
2021/12/12 06:49:51;;;;;;;49.10;24.65;;;;;;;;;;4984512;28;20034;-82
2021/12/12 06:52:18;;;;;;;31.05;18.85;;;;;;;;;;4977517;28;20577;-84
2021/12/12 06:54:46;;;;;;;39.15;22.02;;;;;;;;;;4980783;28;20133;-84
2021/12/12 06:57:14;;;;;;;25.40;18.60;;;;;;;;;;4973999;28;20129;-84
2021/12/12 06:59:41;;;;;;;17.90;14.00;;;;;;;;;;4964171;28;20055;-83
2021/12/12 07:02:07;;;;;;;20.73;14.00;;;;;;;;;;4969948;28;20486;-84
2021/12/12 07:04:34;;;;;;;21.35;14.27;;;;;;;;;;4992455;28;20125;-84
2021/12/12 07:07:01;;;;;;;22.52;14.60;;;;;;;;;;4968602;28;20046;-82
2021/12/12 07:09:30;;;;;;;21.80;13.85;;;;;;;;;;4959677;28;20047;-83
2021/12/12 07:11:57;;;;;;;18.77;13.07;;;;;;;;;;4972377;28;20422;-82
2021/12/12 07:14:23;;;;;;;20.80;15.98;;;;;;;;;;4976987;28;20030;-83
2021/12/12 07:16:49;;;;;;;21.42;15.45;;;;;;;;;;4962670;28;20494;-83
2021/12/12 07:19:16;;;;;;;20.60;13.88;;;;;;;;;;4979904;28;20049;-83
2021/12/12 07:21:43;;;;;;;21.20;14.02;;;;;;;;;;4971186;28;20124;-84
2021/12/12 07:24:10;;;;;;;19.80;13.50;;;;;;;;;;4960578;28;20043;-83
2021/12/12 07:26:36;;;;;;;21.23;14.10;;;;;;;;;;4962885;28;20038;-83
2021/12/12 07:29:03;;;;;;;19.90;13.02;;;;;;;;;;4971860;28;20034;-83
2021/12/12 07:31:31;;;;;;;17.63;12.63;;;;;;;;;;4972944;28;20030;-84
2021/12/12 07:33:59;;;;;;;19.25;13.63;;;;;;;;;;4954211;28;20054;-84
2021/12/12 07:36:25;;;;;;;18.00;13.13;;;;;;;;;;4965484;28;20039;-84
2021/12/12 07:46:29;;;;;;;18.95;13.60;;;;;;;;;;4897818;29;20087;-84
2021/12/12 07:57:05;;;;;;;23.88;15.50;;;;;;;;;;4875686;29;20049;-83
2021/12/12 08:00:30;;;;;;;19.02;13.15;;;;;;;;;;4900381;29;20564;-83
2021/12/12 08:03:28;;;;;;;19.77;13.73;;;;;;;;;;4877567;29;20075;-84
2021/12/12 08:06:35;;;;;;;22.80;14.45;;;;;;;;;;4932234;28;20113;-84
2021/12/12 08:09:02;;;;;;;21.90;14.82;;;;;;;;;;4951591;28;20046;-84
2021/12/12 08:11:31;;;;;;;22.63;15.40;;;;;;;;;;4958188;28;20046;-83
2021/12/12 08:14:05;;;;;;;26.50;17.25;;;;;;;;;;4972461;28;20054;-83
2021/12/12 08:16:37;;;;;;;24.55;16.08;;;;;;;;;;4954302;28;20450;-85
2021/12/12 08:19:13;;;;;;;29.83;18.90;;;;;;;;;;4983918;28;20065;-84
2021/12/12 08:21:39;;;;;;;22.60;15.63;;;;;;;;;;4944627;28;20126;-85
2021/12/12 08:24:12;;;;;;;23.42;16.65;;;;;;;;;;4947523;28;20413;-86
2021/12/12 08:26:40;;;;;;;23.13;15.90;;;;;;;;;;4960257;28;20114;-85
2021/12/12 08:29:11;;;;;;;24.48;16.70;;;;;;;;;;4975042;28;20062;-86
2021/12/12 08:31:39;;;;;;;25.10;16.25;;;;;;;;;;4957600;28;20046;-84
2021/12/12 08:34:09;;;;;;;27.70;16.65;;;;;;;;;;4996373;28;20038;-85
2021/12/12 08:36:36;;;;;;;23.27;16.40;;;;;;;;;;4978468;28;20461;-85
2021/12/12 08:39:13;;;;;;;22.73;16.25;;;;;;;;;;4961639;28;20497;-87
2021/12/12 08:41:41;;;;;;;26.40;17.38;;;;;;;;;;4977362;28;20053;-85
2021/12/12 08:44:08;;;;;;;21.92;14.70;;;;;;;;;;4989959;22;20039;-33
2021/12/12 08:46:34;;;;;;;22.95;15.13;;;;;;;;;;5017742;28;20038;-30
2021/12/12 08:49:01;;;;;;;20.52;14.45;;;;;;;;;;5024003;28;20037;-30
2021/12/12 08:51:31;;;;;;;23.13;15.20;;;;;;;;;;5029805;28;20044;-31
2021/12/12 08:54:01;;;;;;;24.13;15.18;;;;;;;;;;5033701;28;20045;-31
2021/12/12 08:56:42;;;;;;;22.65;15.25;;;;;;;;;;5022047;28;20076;-29
2021/12/12 08:59:09;;;;;;;23.98;15.02;;;;;;;;;;5019188;28;20406;-30
2021/12/12 09:01:37;;;;;;;21.98;14.52;;;;;;;;;;5019649;28;20041;-31
2021/12/12 09:04:04;;;;;;;23.38;15.65;;;;;;;;;;5014816;28;20033;-31
2021/12/12 09:06:35;;;;;;;22.33;15.13;;;;;;;;;;5017050;28;20077;-29
2021/12/12 09:09:05;;;;;;;23.45;15.20;;;;;;;;;;4993823;28;20046;-27
2021/12/12 09:11:31;;;;;;;22.70;14.63;;;;;;;;;;4984959;28;20044;-32
2021/12/12 09:14:07;;;;;;;24.15;14.88;;;;;;;;;;5022307;28;20113;-30
2021/12/12 09:16:35;;;;;;;22.77;15.35;;;;;;;;;;5022731;28;20590;-29
2021/12/12 09:19:05;;;;;;;26.60;16.30;;;;;;;;;;5025939;28;20088;-30
2021/12/12 09:21:48;;;;;;;23.25;16.23;;;;;;;;;;5004229;28;20092;-30
2021/12/12 09:24:19;;;;;;;24.75;17.17;;;;;;;;;;5021737;28;20136;-31
2021/12/12 09:26:49;;;;;;;24.75;15.50;;;;;;;;;;5024967;28;20053;-30
2021/12/12 09:29:20;;;;;;;25.40;17.33;;;;;;;;;;5023660;28;20116;-31
2021/12/12 09:31:50;;;;;;;25.10;16.35;;;;;;;;;;5027966;28;20069;-30
2021/12/12 09:34:28;;;;;;;27.60;16.08;;;;;;;;;;5026031;28;20033;-31
2021/12/12 09:36:56;;;;;;;30.00;18.25;;;;;;;;;;5026759;28;20081;-31
2021/12/12 09:39:30;;;;;;;28.48;17.38;;;;;;;;;;5019421;28;20541;-31
2021/12/12 09:42:03;;;;;;;29.33;17.50;;;;;;;;;;5005883;28;20045;-30
2021/12/12 09:44:49;;;;;;;25.02;16.73;;;;;;;;;;5026673;28;20390;-31
2021/12/12 09:47:58;;;;;;;24.55;16.48;;;;;;;;;;5024149;28;20073;-31
2021/12/12 09:51:14;;;;;;;31.67;18.42;;;;;;;;;;5024729;28;20056;-31
2021/12/12 09:53:54;;;;;;;33.20;18.42;;;;;;;;;;5028579;28;20087;-30
2021/12/12 09:56:23;;;;;;;29.48;17.50;;;;;;;;;;5028457;28;20073;-30
2021/12/12 09:58:49;;;;;;;27.48;17.35;;;;;;;;;;5022971;28;20042;-30
2021/12/12 10:01:33;;;;;;;30.00;18.08;;;;;;;;;;5020466;28;20037;-32
2021/12/12 10:04:18;;;;;;;30.48;18.88;;;;;;;;;;5023759;28;20406;-33
2021/12/12 10:06:49;;;;;;;27.15;16.73;;;;;;;;;;5021476;28;20446;-30
2021/12/12 10:09:22;;;;;;;26.02;16.27;;;;;;;;;;5020512;28;20052;-31
2021/12/12 10:11:58;;;;;;;29.60;17.55;;;;;;;;;;5019123;28;20045;-31
2021/12/12 10:14:57;;;;;;;26.00;17.23;;;;;;;;;;5000085;28;20052;-32
2021/12/12 10:17:27;;;;;;;29.85;18.35;;;;;;;;;;5022764;28;20513;-32
2021/12/12 10:20:01;;;;;;;35.20;18.20;;;;;;;;;;5025153;28;20510;-32
2021/12/12 10:22:43;;;;;;;27.50;17.73;;;;;;;;;;5018116;28;20512;-31
2021/12/12 10:25:19;;;;;;;27.95;17.88;;;;;;;;;;5020228;28;20072;-31
2021/12/12 10:28:03;;;;;;;26.40;16.17;;;;;;;;;;5020223;28;20083;-32
2021/12/12 10:30:30;;;;;;;25.15;17.15;;;;;;;;;;5019299;28;20072;-31
2021/12/12 10:33:08;;;;;;;28.25;15.98;;;;;;;;;;5024271;28;20066;-31
2021/12/12 10:35:41;;;;;;;23.55;14.90;;;;;;;;;;5021801;28;20417;-33
2021/12/12 10:38:24;;;;;;;27.15;16.20;;;;;;;;;;5004779;28;20136;-32
2021/12/12 10:40:59;;;;;;;27.00;15.73;;;;;;;;;;5022943;28;20517;-32
2021/12/12 10:43:27;;;;;;;23.90;15.43;;;;;;;;;;5020795;28;20034;-30
2021/12/12 10:45:58;;;;;;;26.73;16.10;;;;;;;;;;5026842;28;20051;-34
2021/12/12 10:48:28;;;;;;;26.67;16.40;;;;;;;;;;5030486;28;20132;-35
2021/12/12 10:51:03;;;;;;;24.88;15.38;;;;;;;;;;5018320;28;20120;-33
2021/12/12 10:54:05;;;;;;;26.25;15.30;;;;;;;;;;5022110;28;20037;-33
2021/12/12 10:56:31;;;;;;;;;;;;;;;;;;5019956;28;20121;-33
2021/12/12 10:59:00;;;;;;;24.65;14.73;;;;;;;;;;5024603;28;20007;-32
2021/12/12 11:01:38;;;;;;;25.73;14.93;;;;;;;;;;5019956;28;20121;-34
2021/12/12 11:04:05;;;;;;;22.98;14.10;;;;;;;;;;5018953;28;20041;-33
2021/12/12 11:06:43;;;;;;;22.90;14.25;;;;;;;;;;5022942;28;20040;-32
2021/12/12 11:09:15;;;;;;;21.85;13.90;;;;;;;;;;5020681;28;20125;-33
2021/12/12 11:11:49;;;;;;;24.30;14.00;;;;;;;;;;5023411;28;20083;-33
2021/12/12 11:14:15;;;;;;;;;;;;;;;;;;5008008;28;20052;-34
2021/12/12 11:16:56;;;;;;;18.27;12.55;;;;;;;;;;5008023;28;19999;-33
2021/12/12 11:19:25;;;;;;;21.90;13.00;;;;;;;;;;5010490;28;20478;-33
2021/12/12 11:21:55;;;;;;;19.67;12.75;;;;;;;;;;5025359;28;20048;-32
2021/12/12 11:24:28;;;;;;;20.52;13.38;;;;;;;;;;5018287;28;20124;-32
2021/12/12 11:26:58;;;;;;;19.52;13.13;;;;;;;;;;5027365;28;20041;-33
2021/12/12 11:29:32;;;;;;;21.80;14.07;;;;;;;;;;5011711;28;20038;-33
2021/12/12 11:32:02;;;;;;;19.02;13.45;;;;;;;;;;5021596;28;20037;-33
2021/12/12 11:34:31;;;;;;;19.80;13.20;;;;;;;;;;5004260;28;20029;-33
2021/12/12 11:37:08;;;;;;;20.17;12.82;;;;;;;;;;5018096;28;20127;-33
2021/12/12 11:39:57;;;;;;;22.85;13.20;;;;;;;;;;5022267;28;20056;-34
2021/12/12 11:42:29;;;;;;;23.88;13.48;;;;;;;;;;5003775;28;20124;-33
2021/12/12 11:44:55;;;;;;;24.83;14.02;;;;;;;;;;5023713;28;20072;-33
2021/12/12 11:47:24;;;;;;;23.55;13.73;;;;;;;;;;5013515;28;20084;-32
2021/12/12 11:50:13;;;;;;;19.92;12.75;;;;;;;;;;5014516;28;20091;-33
2021/12/12 11:52:50;;;;;;;19.23;13.10;;;;;;;;;;5004546;28;20038;-33
2021/12/12 11:55:20;;;;;;;19.70;13.30;;;;;;;;;;5012076;28;20445;-33
2021/12/12 11:57:55;;;;;;;19.40;12.65;;;;;;;;;;5021827;28;20045;-33
2021/12/12 12:00:23;;;;;;;20.35;13.43;;;;;;;;;;5022906;28;20403;-32
2021/12/12 12:03:08;;;;;;;22.92;15.35;;;;;;;;;;5019691;28;20183;-32
2021/12/12 12:05:59;;;;;;;23.23;14.23;;;;;;;;;;5019092;28;20041;-33
2021/12/12 12:08:37;;;;;;;20.85;12.90;;;;;;;;;;5016077;28;20033;-37
2021/12/12 12:11:18;;;;;;;21.70;14.02;;;;;;;;;;5012444;28;20037;-33
2021/12/12 12:13:56;;;;;;;21.23;13.10;;;;;;;;;;5019734;28;20084;-32
2021/12/12 12:16:44;;;;;;;22.42;13.93;;;;;;;;;;5009201;28;20049;-32
2021/12/12 12:19:32;;;;;;;21.40;14.05;;;;;;;;;;5003806;28;20081;-34
2021/12/12 12:22:22;;;;;;;24.45;13.90;;;;;;;;;;5017190;28;20099;-33
2021/12/12 12:25:28;;;;;;;22.38;14.25;;;;;;;;;;5023506;28;20044;-34
2021/12/12 12:28:08;;;;;;;22.50;13.32;;;;;;;;;;5017532;28;20049;-31
2021/12/12 12:31:00;;;;;;;25.33;15.98;;;;;;;;;;5019177;28;20064;-29
2021/12/12 12:33:58;;;;;;;24.20;14.75;;;;;;;;;;4986397;28;20042;-31
2021/12/12 12:36:46;;;;;;;24.17;15.65;;;;;;;;;;5021513;28;20394;-30
2021/12/12 12:39:24;;;;;;;23.27;15.07;;;;;;;;;;4997800;28;20060;-30
2021/12/12 12:42:09;;;;;;;29.13;15.65;;;;;;;;;;5018253;28;20057;-31
2021/12/12 12:44:44;;;;;;;27.15;14.63;;;;;;;;;;5022071;28;20045;-31
2021/12/12 12:47:31;;;;;;;24.15;14.35;;;;;;;;;;5017058;28;20411;-30
2021/12/12 12:50:07;;;;;;;27.13;15.18;;;;;;;;;;5021035;28;20339;-32
2021/12/12 12:52:53;;;;;;;23.25;14.13;;;;;;;;;;5002297;28;20154;-31
2021/12/12 12:55:31;;;;;;;27.08;15.43;;;;;;;;;;5024654;28;20041;-31
2021/12/12 12:58:34;;;;;;;24.38;15.60;;;;;;;;;;5019417;28;20522;-30
2021/12/12 13:01:32;;;;;;;24.90;15.70;;;;;;;;;;5013107;28;20057;-30
2021/12/12 13:04:07;;;;;;;29.20;16.40;;;;;;;;;;5013740;28;20425;-32
2021/12/12 13:06:46;;;;;;;26.30;15.10;;;;;;;;;;5022640;28;20038;-30
2021/12/12 13:09:21;;;;;;;33.33;15.95;;;;;;;;;;5019634;28;20036;-31
2021/12/12 13:12:08;;;;;;;29.52;15.98;;;;;;;;;;5019746;28;20049;-31
2021/12/12 13:14:49;;;;;;;27.52;16.25;;;;;;;;;;5009776;28;20479;-31
2021/12/12 13:17:24;;;;;;;29.63;15.48;;;;;;;;;;5009584;28;20125;-31
2021/12/12 13:20:08;;;;;;;27.73;16.50;;;;;;;;;;5018997;28;20533;-32
2021/12/12 13:22:41;;;;;;;28.90;16.27;;;;;;;;;;5020098;28;20193;-32
2021/12/12 13:25:33;;;;;;;30.45;16.65;;;;;;;;;;5017273;28;20040;-32
2021/12/12 13:28:16;;;;;;;30.10;16.80;;;;;;;;;;5016905;28;20046;-31
2021/12/12 13:31:13;;;;;;;33.00;18.25;;;;;;;;;;5023582;28;20042;-31
2021/12/12 13:33:42;;;;;;;35.25;18.83;;;;;;;;;;5014984;28;20280;-30
2021/12/12 13:36:14;;;;;;;33.83;17.08;;;;;;;;;;5027012;28;20138;-31
2021/12/12 13:39:05;;;;;;;31.77;18.75;;;;;;;;;;5005004;28;20046;-31
2021/12/12 13:41:30;;;;;;;45.22;25.55;;;;;;;;;;5018016;28;20096;-30
2021/12/12 13:44:18;;;;;;;27.17;16.70;;;;;;;;;;5015929;28;20045;-33
2021/12/12 13:47:04;;;;;;;30.83;17.25;;;;;;;;;;5018128;28;20140;-31
2021/12/12 13:49:33;;;;;;;30.75;18.15;;;;;;;;;;5020518;28;20273;-32
2021/12/12 13:52:14;;;;;;;33.38;18.58;;;;;;;;;;5000930;28;20534;-31
2021/12/12 13:54:47;;;;;;;32.40;17.25;;;;;;;;;;5022821;28;20038;-31
2021/12/12 13:57:16;;;;;;;31.92;17.52;;;;;;;;;;5016900;28;20124;-32
2021/12/12 13:59:44;;;;;;;38.90;23.65;;;;;;;;;;5005264;28;20041;-31
2021/12/12 14:02:13;;;;;;;39.35;26.33;;;;;;;;;;4998488;28;20065;-31
2021/12/12 14:04:42;;;;;;;36.13;23.40;;;;;;;;;;5020353;28;20041;-32
2021/12/12 14:07:10;;;;;;;41.25;22.88;;;;;;;;;;5018346;28;20513;-31
2021/12/12 14:09:38;;;;;;;45.20;28.63;;;;;;;;;;5028363;28;20414;-32
2021/12/12 14:12:08;;;;;;;42.45;26.42;;;;;;;;;;5003941;28;20044;-31
2021/12/12 14:14:38;;;;;;;49.00;29.35;;;;;;;;;;5029282;28;20332;-32
2021/12/12 14:17:22;;;;;;;50.33;28.35;;;;;;;;;;5030319;28;20394;-31
2021/12/12 14:19:50;;;;;;;50.13;28.00;;;;;;;;;;4996289;28;20496;-31
2021/12/12 14:22:23;;;;;;;48.05;27.85;;;;;;;;;;5012658;28;20038;-29
2021/12/12 14:24:56;;;;;;;61.05;32.13;;;;;;;;;;5021199;28;20076;-32
2021/12/12 14:27:31;;;;;;;51.58;26.95;;;;;;;;;;5024899;28;20379;-35
2021/12/12 14:29:57;;;;;;;40.72;23.38;;;;;;;;;;5033234;28;20045;-34
2021/12/12 14:32:37;;;;;;;60.17;30.23;;;;;;;;;;5030630;28;20088;-34
2021/12/12 14:35:15;;;;;;;59.70;34.67;;;;;;;;;;5030371;28;20033;-33
2021/12/12 14:37:49;;;;;;;67.20;38.50;;;;;;;;;;5015892;28;20050;-32
2021/12/12 14:40:24;;;;;;;49.38;28.92;;;;;;;;;;5020703;28;20116;-31
2021/12/12 14:43:01;;;;;;;51.88;28.38;;;;;;;;;;5023750;28;20187;-30
2021/12/12 14:45:35;;;;;;;47.22;28.02;;;;;;;;;;5024003;28;20047;-33
2021/12/12 14:48:03;;;;;;;;;;;;;;;;;;5024995;28;20818;-32
2021/12/12 14:50:55;;;;;;;49.35;27.48;;;;;;;;;;5027229;28;19925;-33
2021/12/12 14:54:00;;;;;;;40.42;21.67;;;;;;;;;;5014759;28;20485;-30
2021/12/12 14:56:40;;;;;;;41.15;22.67;;;;;;;;;;5010975;28;20037;-29
2021/12/12 14:59:08;;;;;;;42.53;20.88;;;;;;;;;;5030550;28;20107;-30
2021/12/12 15:01:44;;;;;;;35.35;22.02;;;;;;;;;;5027907;28;20041;-30
2021/12/12 15:04:18;;;;;;;40.30;21.50;;;;;;;;;;5026042;28;20037;-31
2021/12/12 15:06:49;;;;;;;34.95;19.55;;;;;;;;;;5011403;28;20041;-31
2021/12/12 15:09:15;;;;;;;36.13;20.02;;;;;;;;;;5001626;28;20124;-31
2021/12/12 15:11:51;;;;;;;41.72;21.42;;;;;;;;;;5020519;28;20065;-31
2021/12/12 15:14:19;;;;;;;38.88;21.08;;;;;;;;;;5020220;28;20124;-32
2021/12/12 15:16:49;;;;;;;38.90;22.15;;;;;;;;;;5020939;28;20074;-32
2021/12/12 15:19:23;;;;;;;32.15;19.30;;;;;;;;;;5025212;28;20077;-32
2021/12/12 15:21:57;;;;;;;37.28;21.02;;;;;;;;;;5024678;28;20042;-31
2021/12/12 15:24:28;;;;;;;47.30;25.70;;;;;;;;;;5024288;28;20459;-33
2021/12/12 15:27:10;;;;;;;39.17;20.52;;;;;;;;;;5024311;28;20046;-33